createdAt,value
2019-04-30T00:00:18.303Z,17.77
2019-04-30T00:02:51.073Z,17.63
2019-04-30T00:05:22.206Z,18.97
2019-04-30T00:07:55.058Z,20.07
2019-04-30T00:10:29.099Z,19.80
2019-04-30T00:12:56.873Z,19.37
2019-04-30T00:15:27.396Z,17.13
2019-04-30T00:18:01.656Z,19.13
2019-04-30T00:20:30.095Z,18.70
2019-04-30T00:23:01.446Z,14.30
2019-04-30T00:25:31.771Z,20.57
2019-04-30T00:28:07.230Z,19.17
2019-04-30T00:30:35.089Z,20.17
2019-04-30T00:33:06.631Z,19.13
2019-04-30T00:35:36.955Z,21.90
2019-04-30T00:38:07.279Z,19.43
2019-04-30T00:40:37.809Z,16.37
2019-04-30T00:43:09.083Z,21.33
2019-04-30T00:45:39.963Z,17.17
2019-04-30T00:48:11.236Z,20.43
2019-04-30T00:50:41.560Z,20.30
2019-04-30T00:53:12.822Z,17.97
2019-04-30T00:55:45.005Z,20.80
2019-04-30T00:58:19.671Z,21.07
2019-04-30T01:00:49.000Z,16.80
2019-04-30T01:03:25.564Z,24.20
2019-04-30T01:05:55.382Z,23.60
2019-04-30T01:08:28.462Z,18.80
2019-04-30T01:10:59.797Z,22.03
2019-04-30T01:13:29.629Z,18.97
2019-04-30T01:15:59.953Z,18.53
2019-04-30T01:18:32.045Z,23.97
2019-04-30T01:21:06.920Z,20.87
2019-04-30T01:23:35.016Z,25.77
2019-04-30T01:26:05.139Z,24.57
2019-04-30T01:28:35.872Z,19.80
2019-04-30T01:31:06.198Z,25.00
2019-04-30T01:33:36.511Z,19.47
2019-04-30T01:36:09.581Z,19.40
2019-04-30T01:38:40.332Z,16.93
2019-04-30T01:41:10.966Z,15.93
2019-04-30T01:43:41.501Z,20.23
2019-04-30T01:46:13.802Z,19.70
2019-04-30T01:48:43.710Z,14.63
2019-04-30T01:51:20.272Z,26.07
2019-04-30T01:53:48.454Z,17.83
2019-04-30T01:56:28.818Z,21.53
2019-04-30T01:59:09.180Z,20.07
2019-04-30T02:01:44.079Z,21.63
2019-04-30T02:04:14.403Z,18.87
2019-04-30T02:06:44.726Z,19.53
2019-04-30T02:09:15.255Z,18.27
2019-04-30T02:11:45.579Z,15.53
2019-04-30T02:14:15.784Z,19.67
2019-04-30T02:16:46.226Z,20.40
2019-04-30T02:19:16.345Z,19.03
2019-04-30T02:21:48.626Z,21.73
2019-04-30T02:24:19.193Z,17.43
2019-04-30T02:26:50.183Z,19.50
2019-04-30T02:29:20.507Z,16.47
2019-04-30T02:31:50.656Z,20.80
2019-04-30T02:34:24.936Z,15.53
2019-04-30T02:36:59.082Z,17.87
2019-04-30T02:39:30.272Z,16.43
2019-04-30T02:42:02.105Z,23.07
2019-04-30T02:44:33.510Z,18.13
2019-04-30T02:47:04.246Z,22.03
2019-04-30T02:49:35.387Z,19.97
2019-04-30T02:52:09.107Z,19.40
2019-04-30T02:54:40.750Z,16.13
2019-04-30T02:57:12.706Z,20.20
2019-04-30T03:00:01.534Z,19.10
2019-04-30T03:02:32.616Z,20.87
2019-04-30T03:05:02.929Z,17.43
2019-04-30T03:07:33.260Z,22.67
2019-04-30T03:10:03.995Z,24.53
2019-04-30T03:12:34.152Z,19.23
2019-04-30T03:15:05.958Z,23.37
2019-04-30T03:17:39.415Z,22.87
2019-04-30T03:20:27.999Z,15.73
2019-04-30T03:22:46.869Z,27.57
2019-04-30T03:25:19.307Z,18.80
2019-04-30T03:28:01.228Z,19.20
2019-04-30T03:30:32.354Z,20.40
2019-04-30T03:33:03.213Z,23.20
2019-04-30T03:35:33.853Z,19.47
2019-04-30T03:38:04.375Z,24.53
2019-04-30T03:40:34.700Z,26.40
2019-04-30T03:43:05.228Z,20.50
2019-04-30T03:45:35.542Z,26.57
2019-04-30T03:48:05.671Z,22.80
2019-04-30T03:50:49.251Z,25.30
2019-04-30T03:53:10.380Z,22.90
2019-04-30T03:55:41.148Z,19.60
2019-04-30T03:58:11.475Z,18.23
2019-04-30T04:00:46.702Z,21.53
2019-04-30T04:03:19.964Z,22.77
2019-04-30T04:05:50.614Z,17.43
2019-04-30T04:08:39.121Z,18.80
2019-04-30T04:11:11.768Z,19.67
2019-04-30T04:13:42.087Z,25.20
2019-04-30T04:16:12.410Z,24.43
2019-04-30T04:18:42.733Z,23.60
2019-04-30T04:21:16.710Z,21.53
2019-04-30T04:23:44.815Z,28.37
2019-04-30T04:26:15.344Z,19.83
2019-04-30T04:28:45.666Z,21.10
2019-04-30T04:31:16.196Z,20.60
2019-04-30T04:33:49.146Z,21.03
2019-04-30T04:36:39.953Z,21.77
2019-04-30T04:39:09.935Z,20.77
2019-04-30T04:41:40.224Z,20.90
2019-04-30T04:44:13.131Z,22.00
2019-04-30T04:46:42.305Z,28.27
2019-04-30T04:49:12.632Z,18.53
2019-04-30T04:51:43.363Z,19.50
2019-04-30T04:54:13.691Z,21.93
2019-04-30T04:56:44.215Z,27.17
2019-04-30T04:59:14.539Z,27.40
2019-04-30T05:01:44.863Z,21.53
2019-04-30T05:04:15.199Z,24.50
2019-04-30T05:06:45.306Z,38.43
2019-04-30T05:09:15.834Z,22.37
2019-04-30T05:11:46.364Z,27.90
2019-04-30T05:14:18.595Z,22.97
2019-04-30T05:16:48.819Z,28.53
2019-04-30T05:19:19.380Z,19.37
2019-04-30T05:21:51.727Z,23.60
2019-04-30T05:24:22.078Z,18.73
2019-04-30T05:26:54.652Z,20.03
2019-04-30T05:29:24.976Z,22.40
2019-04-30T05:31:55.299Z,29.27
2019-04-30T05:34:25.623Z,22.43
2019-04-30T05:36:55.946Z,22.20
2019-04-30T05:39:28.153Z,25.37
2019-04-30T05:41:58.958Z,20.37
2019-04-30T05:44:29.849Z,25.03
2019-04-30T05:47:01.952Z,24.10
2019-04-30T05:49:32.328Z,30.60
2019-04-30T05:52:05.070Z,23.90
2019-04-30T05:54:35.269Z,23.97
2019-04-30T05:57:06.115Z,22.13
2019-04-30T05:59:38.782Z,23.03
2019-04-30T06:02:11.483Z,21.40
2019-04-30T06:04:42.002Z,19.70
2019-04-30T06:07:13.763Z,23.90
2019-04-30T06:09:50.419Z,19.57
2019-04-30T06:12:23.009Z,18.67
2019-04-30T06:15:08.988Z,13.83
2019-04-30T06:17:40.658Z,23.27
2019-04-30T06:20:18.253Z,19.50
2019-04-30T06:22:43.758Z,19.77
2019-04-30T06:25:14.291Z,16.25
2019-04-30T06:27:45.020Z,21.48
2019-04-30T06:30:15.764Z,18.25
2019-04-30T06:32:46.487Z,20.52
2019-04-30T06:35:19.380Z,24.12
2019-04-30T06:37:51.231Z,20.10
2019-04-30T06:40:21.345Z,26.00
2019-04-30T06:42:53.107Z,22.37
2019-04-30T06:45:23.430Z,26.35
2019-04-30T06:47:56.311Z,24.52
2019-04-30T06:50:26.741Z,18.80
2019-04-30T06:53:01.017Z,22.50
2019-04-30T06:55:30.831Z,12.75
2019-04-30T06:58:11.883Z,27.05
2019-04-30T07:00:40.062Z,28.55
2019-04-30T07:03:10.647Z,15.65
2019-04-30T07:05:41.380Z,17.92
2019-04-30T07:08:37.290Z,18.23
2019-04-30T07:11:15.064Z,17.77
2019-04-30T07:13:49.485Z,23.15
2019-04-30T07:16:20.156Z,14.25
2019-04-30T07:18:50.890Z,22.60
2019-04-30T07:21:21.216Z,20.70
2019-04-30T07:23:52.755Z,18.87
2019-04-30T07:26:24.388Z,16.87
2019-04-30T07:28:55.435Z,18.12
2019-04-30T07:31:25.785Z,18.02
2019-04-30T07:33:55.920Z,29.72
2019-04-30T07:36:43.464Z,12.43
2019-04-30T07:38:59.911Z,16.55
2019-04-30T07:41:31.285Z,30.32
2019-04-30T07:44:01.908Z,13.38
2019-04-30T07:46:35.345Z,14.23
2019-04-30T07:49:03.991Z,23.80
2019-04-30T07:51:37.871Z,17.37
2019-04-30T07:54:06.275Z,13.55
2019-04-30T07:56:38.777Z,14.30
2019-04-30T07:59:11.047Z,13.53
2019-04-30T08:02:00.245Z,13.03
2019-04-30T08:04:29.253Z,17.87
2019-04-30T08:07:02.937Z,14.55
2019-04-30T08:09:39.830Z,12.75
2019-04-30T08:12:06.269Z,15.93
2019-04-30T08:14:38.971Z,17.98
2019-04-30T08:17:09.295Z,17.23
2019-04-30T08:19:41.045Z,14.85
2019-04-30T08:22:11.379Z,14.40
2019-04-30T08:24:41.699Z,9.85
2019-04-30T08:27:12.023Z,25.00
2019-04-30T08:29:42.552Z,13.22
2019-04-30T08:32:13.081Z,15.45
2019-04-30T08:34:43.404Z,13.60
2019-04-30T08:37:17.679Z,11.03
2019-04-30T08:39:46.509Z,10.72
2019-04-30T08:42:29.014Z,15.75
2019-04-30T08:44:49.002Z,8.15
2019-04-30T08:47:21.290Z,14.43
2019-04-30T08:49:51.296Z,13.65
2019-04-30T08:52:22.227Z,10.30
2019-04-30T08:54:53.162Z,19.70
2019-04-30T08:57:23.692Z,10.45
2019-04-30T08:59:54.018Z,13.90
2019-04-30T09:02:35.889Z,10.72
2019-04-30T09:05:24.564Z,11.10
2019-04-30T09:07:55.305Z,10.05
2019-04-30T09:10:25.825Z,17.12
2019-04-30T09:12:56.148Z,14.45
2019-04-30T09:15:26.476Z,10.35
2019-04-30T09:18:03.353Z,23.07
2019-04-30T09:20:29.162Z,12.20
2019-04-30T09:22:59.901Z,18.10
2019-04-30T09:25:30.430Z,15.18
2019-04-30T09:28:00.958Z,14.38
2019-04-30T09:30:31.487Z,13.03
2019-04-30T09:33:01.811Z,17.60
2019-04-30T09:35:32.263Z,9.30
2019-04-30T09:38:09.294Z,10.28
2019-04-30T09:40:41.633Z,10.98
2019-04-30T09:43:11.707Z,11.95
2019-04-30T09:45:42.235Z,13.18
2019-04-30T09:48:12.969Z,16.77
2019-04-30T09:50:43.404Z,17.87
2019-04-30T09:53:14.246Z,16.32
2019-04-30T09:55:44.760Z,12.53
2019-04-30T09:58:20.384Z,11.08
2019-04-30T10:00:48.522Z,13.65
2019-04-30T10:03:20.026Z,21.45
2019-04-30T10:05:51.584Z,13.05
2019-04-30T10:08:22.254Z,13.78
2019-04-30T10:11:06.524Z,8.68
2019-04-30T10:13:37.301Z,16.15
2019-04-30T10:16:26.467Z,14.28
2019-04-30T10:18:59.210Z,11.85
2019-04-30T10:21:29.163Z,15.88
2019-04-30T10:24:12.310Z,11.88
2019-04-30T10:26:31.857Z,15.58
2019-04-30T10:29:02.807Z,12.63
2019-04-30T10:31:33.528Z,12.47
2019-04-30T10:34:03.856Z,9.33
2019-04-30T10:36:34.177Z,11.97
2019-04-30T10:39:07.386Z,10.03
2019-04-30T10:41:39.515Z,11.88
2019-04-30T10:44:10.465Z,10.25
2019-04-30T10:46:41.210Z,12.63
2019-04-30T10:49:11.738Z,16.30
2019-04-30T10:51:41.856Z,11.83
2019-04-30T10:54:23.235Z,13.38
2019-04-30T10:56:43.935Z,16.23
2019-04-30T10:59:14.258Z,13.30
2019-04-30T11:01:44.381Z,10.23
2019-04-30T11:04:16.545Z,13.40
2019-04-30T11:06:46.868Z,8.10
2019-04-30T11:09:17.395Z,16.55
2019-04-30T11:11:49.592Z,15.05
2019-04-30T11:14:19.683Z,13.60
2019-04-30T11:16:51.590Z,8.53
2019-04-30T11:19:22.000Z,12.40
2019-04-30T11:21:52.802Z,10.03
2019-04-30T11:24:35.876Z,18.48
2019-04-30T11:26:55.615Z,12.53
2019-04-30T11:29:26.511Z,10.30
2019-04-30T11:31:58.850Z,9.78
2019-04-30T11:34:29.646Z,13.08
2019-04-30T11:36:59.969Z,10.78
2019-04-30T11:39:30.489Z,7.80
2019-04-30T11:42:00.822Z,11.10
2019-04-30T11:44:31.685Z,19.25
2019-04-30T11:47:05.155Z,11.40
2019-04-30T11:49:35.683Z,18.70
2019-04-30T11:52:06.212Z,15.88
2019-04-30T11:54:48.251Z,18.65
2019-04-30T11:57:08.887Z,14.87
2019-04-30T11:59:39.846Z,13.10
2019-04-30T12:02:29.302Z,13.53
2019-04-30T12:05:00.364Z,20.75
2019-04-30T12:07:41.128Z,12.28
2019-04-30T12:10:19.647Z,9.03
2019-04-30T12:12:50.172Z,12.45
2019-04-30T12:15:20.702Z,20.65
2019-04-30T12:17:51.024Z,11.60
2019-04-30T12:20:22.634Z,12.47
2019-04-30T12:22:53.515Z,7.33
2019-04-30T12:25:24.034Z,11.53
2019-04-30T12:27:54.367Z,17.07
2019-04-30T12:30:25.515Z,15.38
2019-04-30T12:32:55.835Z,8.38
2019-04-30T12:35:26.159Z,13.30
2019-04-30T12:37:56.483Z,9.60
2019-04-30T12:40:30.057Z,12.35
2019-04-30T12:42:59.862Z,10.98
2019-04-30T12:45:32.370Z,10.45
2019-04-30T12:48:04.946Z,12.07
2019-04-30T12:50:39.094Z,14.87
2019-04-30T12:53:25.460Z,9.35
2019-04-30T12:56:00.404Z,9.25
2019-04-30T12:58:31.637Z,10.23
2019-04-30T13:01:03.693Z,16.93
2019-04-30T13:03:33.922Z,9.65
2019-04-30T13:06:04.879Z,10.05
2019-04-30T13:08:36.440Z,9.83
2019-04-30T13:11:07.096Z,9.73
2019-04-30T13:13:40.044Z,11.20
2019-04-30T13:16:09.785Z,10.45
2019-04-30T13:18:40.165Z,14.65
2019-04-30T13:21:10.694Z,13.35
2019-04-30T13:23:41.017Z,12.88
2019-04-30T13:26:11.343Z,10.93
2019-04-30T13:28:43.713Z,8.93
2019-04-30T13:31:14.036Z,10.68
2019-04-30T13:33:46.785Z,8.75
2019-04-30T13:36:19.798Z,13.60
2019-04-30T13:41:57.113Z,17.85
2019-04-30T13:44:31.122Z,21.40
2019-04-30T13:47:01.650Z,25.60
2019-04-30T13:49:31.975Z,13.88
2019-04-30T13:52:01.979Z,19.23
2019-04-30T13:54:32.829Z,11.10
2019-04-30T13:57:02.944Z,12.35
2019-04-30T13:59:33.268Z,17.00
2019-04-30T14:02:04.822Z,23.45
2019-04-30T14:04:51.938Z,9.63
2019-04-30T14:07:40.343Z,14.40
2019-04-30T14:10:10.914Z,16.67
2019-04-30T14:12:42.775Z,13.15
2019-04-30T14:15:14.741Z,14.23
2019-04-30T14:17:45.061Z,10.80
2019-04-30T14:20:15.794Z,15.60
2019-04-30T14:22:46.738Z,11.65
2019-04-30T14:25:17.262Z,19.05
2019-04-30T14:27:52.293Z,15.80
2019-04-30T14:30:19.730Z,9.73
2019-04-30T14:32:50.760Z,10.38
2019-04-30T14:35:21.424Z,9.05
2019-04-30T14:37:51.768Z,12.40
2019-04-30T14:40:22.667Z,22.37
2019-04-30T14:42:59.678Z,12.10
2019-04-30T14:45:40.968Z,18.12
2019-04-30T14:48:32.033Z,10.15
2019-04-30T14:51:03.098Z,11.25
2019-04-30T14:53:41.204Z,7.90
2019-04-30T14:56:22.401Z,10.15
2019-04-30T14:58:54.346Z,12.78
2019-04-30T15:01:29.292Z,9.33
2019-04-30T15:04:00.316Z,12.43
2019-04-30T15:06:30.847Z,10.30
2019-04-30T15:09:01.374Z,11.68
2019-04-30T15:11:31.698Z,14.13
2019-04-30T15:14:02.226Z,11.68
2019-04-30T15:16:32.550Z,11.35
2019-04-30T15:19:02.874Z,14.98
2019-04-30T15:21:33.402Z,13.03
2019-04-30T15:24:14.171Z,10.68
2019-04-30T15:26:44.512Z,10.23
2019-04-30T15:29:16.183Z,12.07
2019-04-30T15:31:46.787Z,9.50
2019-04-30T15:34:19.104Z,13.35
2019-04-30T15:36:49.300Z,18.92
2019-04-30T15:39:30.645Z,18.32
2019-04-30T15:41:59.954Z,15.65
2019-04-30T15:44:30.884Z,13.15
2019-04-30T15:47:01.420Z,14.63
2019-04-30T15:49:31.744Z,13.22
2019-04-30T15:52:02.068Z,12.10
2019-04-30T15:54:32.597Z,17.65
2019-04-30T15:57:02.916Z,17.70
2019-04-30T15:59:39.350Z,15.20
2019-04-30T16:02:12.375Z,10.78
2019-04-30T16:04:49.021Z,14.95
2019-04-30T16:07:19.630Z,16.55
2019-04-30T16:10:08.906Z,12.25
2019-04-30T16:12:48.610Z,14.25
2019-04-30T16:15:19.515Z,13.83
2019-04-30T16:17:51.392Z,21.75
2019-04-30T16:20:21.710Z,13.88
2019-04-30T16:22:52.242Z,15.25
2019-04-30T16:25:22.575Z,13.90
2019-04-30T16:27:53.090Z,20.02
2019-04-30T16:30:23.620Z,12.33
2019-04-30T16:32:53.950Z,14.83
2019-04-30T16:35:25.502Z,11.90
2019-04-30T16:37:56.027Z,11.57
2019-04-30T16:40:26.042Z,13.18
2019-04-30T16:42:56.712Z,16.60
2019-04-30T16:45:28.989Z,12.75
2019-04-30T16:47:59.982Z,16.10
2019-04-30T16:50:30.306Z,14.03
2019-04-30T16:53:00.629Z,16.40
2019-04-30T16:55:30.748Z,16.55
2019-04-30T16:58:01.087Z,13.48
2019-04-30T17:00:31.602Z,13.25
2019-04-30T17:03:09.222Z,12.07
2019-04-30T17:05:47.625Z,14.65
2019-04-30T17:08:28.983Z,16.57
2019-04-30T17:11:06.292Z,13.13
2019-04-30T17:13:41.518Z,15.05
2019-04-30T17:16:13.783Z,14.60
2019-04-30T17:18:44.418Z,14.90
2019-04-30T17:21:14.743Z,17.65
2019-04-30T17:23:45.271Z,18.62
2019-04-30T17:26:15.594Z,31.45
2019-04-30T17:28:49.763Z,20.82
2019-04-30T17:31:20.132Z,20.45
2019-04-30T17:33:50.456Z,25.45
2019-04-30T17:36:20.780Z,23.52
2019-04-30T17:38:50.889Z,17.32
2019-04-30T17:41:21.018Z,24.25
2019-04-30T17:43:51.342Z,19.07
2019-04-30T17:46:21.463Z,23.20
2019-04-30T17:48:51.784Z,16.07
2019-04-30T17:51:22.917Z,19.25
2019-04-30T17:56:53.067Z,20.15
2019-04-30T17:59:23.602Z,19.05
2019-04-30T18:01:55.556Z,19.85
2019-04-30T18:04:25.881Z,22.13
2019-04-30T18:06:58.565Z,20.37
2019-04-30T18:09:29.194Z,20.33
2019-04-30T18:11:59.718Z,29.63
2019-04-30T18:14:30.658Z,23.62
2019-04-30T18:17:00.981Z,22.93
2019-04-30T18:19:38.699Z,18.20
2019-04-30T18:22:19.467Z,21.27
2019-04-30T18:24:51.613Z,23.83
2019-04-30T18:27:29.489Z,30.07
2019-04-30T18:30:00.043Z,21.33
2019-04-30T18:32:30.981Z,21.07
2019-04-30T18:35:01.612Z,24.60
2019-04-30T18:37:32.134Z,23.92
2019-04-30T18:40:04.374Z,18.77
2019-04-30T18:42:35.536Z,28.50
2019-04-30T18:45:06.435Z,27.80
2019-04-30T18:47:36.481Z,26.27
2019-04-30T18:50:06.902Z,30.20
2019-04-30T18:52:36.936Z,26.03
2019-04-30T18:55:09.240Z,23.90
2019-04-30T18:57:39.875Z,31.37
2019-04-30T19:00:10.185Z,24.73
2019-04-30T19:02:40.527Z,25.10
2019-04-30T19:05:12.042Z,26.50
2019-04-30T19:07:59.111Z,22.40
2019-04-30T19:10:46.919Z,23.37
2019-04-30T19:13:19.025Z,34.93
2019-04-30T19:16:18.540Z,25.70
2019-04-30T19:18:46.236Z,23.50
2019-04-30T19:21:18.609Z,23.90
2019-04-30T19:23:48.997Z,18.50
2019-04-30T19:26:20.930Z,21.07
2019-04-30T19:28:51.309Z,21.83
2019-04-30T19:31:22.361Z,20.10
2019-04-30T19:33:52.684Z,18.30
2019-04-30T19:36:34.952Z,20.20
2019-04-30T19:38:55.059Z,20.50
2019-04-30T19:41:25.501Z,23.10
2019-04-30T19:43:55.825Z,22.83
2019-04-30T19:46:26.146Z,24.63
2019-04-30T19:48:56.352Z,25.30
2019-04-30T19:51:26.999Z,23.20
2019-04-30T19:53:57.108Z,29.03
2019-04-30T19:56:29.412Z,27.17
2019-04-30T19:59:02.905Z,20.63
2019-04-30T20:01:30.865Z,23.03
2019-04-30T20:04:00.877Z,25.37
2019-04-30T20:06:30.903Z,23.00
2019-04-30T20:09:01.071Z,20.83
2019-04-30T20:11:30.922Z,24.20
2019-04-30T20:14:00.860Z,25.60
2019-04-30T20:16:30.695Z,20.87
2019-04-30T20:19:00.603Z,20.20
2019-04-30T20:21:45.365Z,24.80
2019-04-30T20:24:02.425Z,24.47
2019-04-30T20:26:32.565Z,28.70
2019-04-30T20:29:03.290Z,22.17
2019-04-30T20:31:34.022Z,26.03
2019-04-30T20:34:04.551Z,22.73
2019-04-30T20:36:34.670Z,19.60
2019-04-30T20:39:08.766Z,32.97
2019-04-30T20:41:39.586Z,27.53
2019-04-30T20:44:10.604Z,25.10
2019-04-30T20:46:41.708Z,25.57
2019-04-30T20:49:12.636Z,22.93
2019-04-30T20:51:52.771Z,26.63
2019-04-30T20:54:14.923Z,22.77
2019-04-30T20:56:45.451Z,26.60
2019-04-30T20:59:15.980Z,27.83
2019-04-30T21:01:46.303Z,25.60
2019-04-30T21:04:16.628Z,23.10
2019-04-30T21:06:46.956Z,27.97
2019-04-30T21:09:17.483Z,26.43
2019-04-30T21:11:48.990Z,26.23
2019-04-30T21:14:19.561Z,27.90
2019-04-30T21:16:49.885Z,30.03
2019-04-30T21:19:20.209Z,23.97
2019-04-30T21:21:50.742Z,28.03
2019-04-30T21:24:21.062Z,27.20
2019-04-30T21:26:51.385Z,27.57
2019-04-30T21:29:22.007Z,21.40
2019-04-30T21:31:56.541Z,25.73
2019-04-30T21:34:29.354Z,26.13
2019-04-30T21:37:00.251Z,26.53
2019-04-30T21:39:30.787Z,26.27
2019-04-30T21:42:01.117Z,22.90
2019-04-30T21:44:31.435Z,31.03
2019-04-30T21:47:01.962Z,31.60
2019-04-30T21:49:32.285Z,26.53
2019-04-30T21:52:02.598Z,25.93
2019-04-30T21:54:33.141Z,29.30
2019-04-30T21:57:03.461Z,30.83
2019-04-30T21:59:33.785Z,28.13
2019-04-30T22:02:04.520Z,27.70
2019-04-30T22:04:34.842Z,34.93
2019-04-30T22:07:05.575Z,37.60
2019-04-30T22:09:36.094Z,31.53
2019-04-30T22:12:06.633Z,27.17
2019-04-30T22:14:36.958Z,31.97
2019-04-30T22:17:09.192Z,30.20
2019-04-30T22:19:39.242Z,33.07
2019-04-30T22:22:09.566Z,25.43
2019-04-30T22:24:39.891Z,40.37
2019-04-30T22:27:10.214Z,40.63
2019-04-30T22:29:42.198Z,30.43
2019-04-30T22:32:12.910Z,37.03
2019-04-30T22:34:43.438Z,30.93
2019-04-30T22:37:13.762Z,30.83
2019-04-30T22:39:45.519Z,31.33
2019-04-30T22:42:30.776Z,29.03
2019-04-30T22:45:02.346Z,36.87
2019-04-30T22:47:32.669Z,29.63
2019-04-30T22:50:03.403Z,32.67
2019-04-30T22:52:33.731Z,30.37
2019-04-30T22:55:04.583Z,27.47
2019-04-30T22:57:34.784Z,32.53
2019-04-30T23:00:09.776Z,35.03
2019-04-30T23:02:44.853Z,33.47
2019-04-30T23:05:16.806Z,33.93
2019-04-30T23:07:47.129Z,31.07
2019-04-30T23:10:38.431Z,30.90
2019-04-30T23:13:08.675Z,25.20
2019-04-30T23:15:39.205Z,33.00
2019-04-30T23:18:09.326Z,29.60
2019-04-30T23:20:39.852Z,30.70
2019-04-30T23:23:10.159Z,37.13
2019-04-30T23:25:40.295Z,39.60
2019-04-30T23:28:10.620Z,34.27
2019-04-30T23:30:40.943Z,42.57
2019-04-30T23:33:11.266Z,40.87
2019-04-30T23:35:41.797Z,36.17
2019-04-30T23:38:11.914Z,36.83
2019-04-30T23:40:52.886Z,37.67
2019-04-30T23:43:23.201Z,30.17
2019-04-30T23:45:53.534Z,27.37
2019-04-30T23:48:23.857Z,32.67
2019-04-30T23:50:54.184Z,30.53
2019-04-30T23:53:24.496Z,29.90
2019-04-30T23:55:54.611Z,35.03
2019-04-30T23:58:24.948Z,26.13
